»·PEaware :: N912NB KBLH-KSBA

N912NB :: KBLH-KSBA

FLIGHT INFORMATION

Flight Status: Arrived
Operator: Privately registered:
United States
More flights under this callsign
Pilot: Patricio R. (14780)
Aircraft: BOEING 737-200
(B732)
More flights by this aircraft type
Origin: KBLH Blythe
United States
Destination: KSBA Santa Barbara Mun
United States
More flights between these airports :: More routes between these airports
Route: BLH V16 PDZ V186 FIM V386 RZS
File this flight plan on PilotEdge
Remarks: PBN / A1B2 DOF / 181002 REG / N275SB OPR / XXX RMK / TCAS SIMBRIEF
Altitude:
(Current/Filed)
28,000ft
Speed:
(Current/Filed)
442kts
Departed: 02-Oct-18 01:57 PM
Arrived: 02-Oct-18 02:54 PM
Distance/Time
Traveled:
259nm/0:56
Distance/Time
To Go:
Arrived

Flight Plot

Page will automatically refresh every two minutes.

Flight plan parsing failed; only flown route is shown


Map Options




Map Legend


Flown Route
Filed Route
Departure Airport
Arrival Airport
Navaid (VOR, NDB)
Fix

Horizontal Profiles

Position Reports

Time Latitude Longitude Heading Altitude Ground
Speed
02-Oct-18 13:45 33.614116 -114.712158 360 399ft 0kts
02-Oct-18 13:46 33.614116 -114.712158 360 399ft 0kts
02-Oct-18 13:47 33.614116 -114.712158 360 399ft 0kts
02-Oct-18 13:48 33.614116 -114.712158 360 399ft 0kts
02-Oct-18 13:49 33.614116 -114.712158 360 399ft 0kts
02-Oct-18 13:50 33.614116 -114.712158 360 399ft 0kts
02-Oct-18 13:51 33.614116 -114.712158 360 399ft 0kts
02-Oct-18 13:52 33.614116 -114.712158 359 399ft 0kts
02-Oct-18 13:53 33.614116 -114.712158 360 399ft 0kts
02-Oct-18 13:54 33.615156 -114.710920 91 399ft 15kts
02-Oct-18 13:55 33.615577 -114.706342 45 399ft 2kts
02-Oct-18 13:56 33.615589 -114.706329 43 399ft 0kts
02-Oct-18 13:57 33.615589 -114.706329 43 399ft 0kts
02-Oct-18 13:58 33.616211 -114.706330 335 399ft 7kts
02-Oct-18 13:59 33.616853 -114.739518 268 1066ft 194kts
02-Oct-18 14:00 33.576142 -114.777474 166 4246ft 226kts
02-Oct-18 14:01 33.549724 -114.716672 65 7355ft 252kts
02-Oct-18 14:02 33.614159 -114.706616 312 9770ft 286kts
02-Oct-18 14:03 33.633066 -114.799722 273 12240ft 301kts
02-Oct-18 14:04 33.634743 -114.900473 267 14823ft 308kts
02-Oct-18 14:05 33.641097 -115.004235 270 17141ft 314kts
02-Oct-18 14:06 33.651799 -115.108612 275 19296ft 318kts
02-Oct-18 14:07 33.667854 -115.213078 276 21214ft 320kts
02-Oct-18 14:08 33.685503 -115.318671 276 22783ft 326kts
02-Oct-18 14:09 33.703812 -115.426372 276 24192ft 331kts
02-Oct-18 14:10 33.722350 -115.535269 275 25425ft 336kts
02-Oct-18 14:11 33.741136 -115.646221 275 26523ft 341kts
02-Oct-18 14:12 33.759061 -115.756449 274 27537ft 346kts
02-Oct-18 14:13 33.778136 -115.871932 274 27856ft 367kts
02-Oct-18 14:14 33.798560 -115.994402 274 27821ft 377kts
02-Oct-18 14:15 33.819060 -116.118620 274 27820ft 381kts
02-Oct-18 14:16 33.839658 -116.244077 274 27831ft 383kts
02-Oct-18 14:17 33.860258 -116.370248 274 27854ft 385kts
02-Oct-18 14:18 33.872007 -116.496259 265 27864ft 378kts
02-Oct-18 14:19 33.876060 -116.623276 267 27861ft 380kts
02-Oct-18 14:20 33.881285 -116.743906 267 27894ft 381kts
02-Oct-18 14:21 33.887384 -116.871073 267 27932ft 382kts
02-Oct-18 14:22 33.893657 -116.998811 266 27950ft 383kts
02-Oct-18 14:23 33.899789 -117.126847 264 27958ft 385kts
02-Oct-18 14:24 33.905764 -117.255845 264 27951ft 387kts
02-Oct-18 14:25 33.911680 -117.385203 265 27941ft 389kts
02-Oct-18 14:26 33.917550 -117.514192 265 27939ft 389kts
02-Oct-18 14:27 33.935576 -117.642306 282 27933ft 409kts
02-Oct-18 14:28 33.975156 -117.762079 276 27937ft 404kts
02-Oct-18 14:29 34.004044 -117.887042 305 27959ft 437kts
02-Oct-18 14:30 34.090035 -117.984325 279 27959ft 405kts
02-Oct-18 14:31 34.106141 -118.112795 276 27933ft 403kts
02-Oct-18 14:32 34.141243 -118.234600 280 27724ft 363kts
02-Oct-18 14:33 34.177879 -118.346463 282 25435ft 357kts
02-Oct-18 14:34 34.214399 -118.454883 283 23945ft 339kts
02-Oct-18 14:35 34.249900 -118.560255 283 22820ft 345kts
02-Oct-18 14:36 34.285095 -118.665193 283 20749ft 337kts
02-Oct-18 14:37 34.319095 -118.768549 285 18794ft 332kts
02-Oct-18 14:38 34.352674 -118.870904 282 17452ft 324kts
02-Oct-18 14:39 34.376813 -118.974374 277 15529ft 317kts
02-Oct-18 14:40 34.395761 -119.077243 276 13661ft 311kts
02-Oct-18 14:41 34.413022 -119.178285 276 11933ft 303kts
02-Oct-18 14:42 34.429322 -119.275882 277 10383ft 291kts
02-Oct-18 14:43 34.439725 -119.370112 249 8823ft 272kts
02-Oct-18 14:44 34.398176 -119.443380 231 7222ft 263kts
02-Oct-18 14:45 34.334362 -119.470273 192 5656ft 263kts
02-Oct-18 14:46 34.262689 -119.486004 192 4084ft 260kts
02-Oct-18 14:47 34.205768 -119.524263 261 2995ft 236kts
02-Oct-18 14:48 34.247495 -119.569653 342 2999ft 223kts
02-Oct-18 14:49 34.304772 -119.588629 342 2350ft 208kts
02-Oct-18 14:50 34.348003 -119.622448 310 2076ft 168kts
02-Oct-18 14:51 34.367832 -119.658584 321 2094ft 152kts
02-Oct-18 14:52 34.398378 -119.698576 300 2098ft 137kts
02-Oct-18 14:53 34.416850 -119.738734 292 1949ft 137kts
02-Oct-18 14:54 34.426991 -119.773445 284 1260ft 124kts
02-Oct-18 14:55 34.428260 -119.820100 268 297ft 116kts
02-Oct-18 14:56 34.427624 -119.848002 266 22ft 37kts
02-Oct-18 14:57 34.426473 -119.849949 87 22ft 17kts
02-Oct-18 14:58 34.426619 -119.842793 87 22ft 23kts
02-Oct-18 14:59 34.425435 -119.837973 165 22ft 13kts
02-Oct-18 15:00 34.421692 -119.836382 170 22ft 13kts
02-Oct-18 15:01 34.421306 -119.836098 346 22ft 0kts

Navigation Log

Ident Type
Flight plan parsing failed, navigation log unavailable